Aérodrome :
LOGIN :

S'inscrire | Disclaimer

   EN    FR    IT 

 










Légende :    VFR   VFR Marginal   IFR   IFR Intensif   IFR Très Intensif
Visi : 
Plafond : 
>= 8 km
>= 3000ft
5 à 8 km
1000 à 3000 ft
1500m à 5 km
500 à 1000 ft
800 à 1500m
200 à 500 ft
< 800m
< 200 ft
Symboles :   Orages  Brouillard  Fortes neiges  Fortes précipitations  Vent > 20 kt
SIGMETs :   Divers  Orages  Givrage  Turbulence  Onde Orograph.  Cendres Volcan.






- Altitude de l'aérodrome : 794 ft


LKCV - Čáslav Air Base

DERNIER METAR :
  • 230930Z 32007KT 290V350 9999 SCT030 20/13 Q1015 NOSIG RMK BLU BLU

METARs EXPIRÉS :
  • 230900Z 31006KT 9999 SCT027 BKN080 19/12 Q1015 NOSIG RMK BLU BLU
  • 230830Z 29006KT 220V340 9999 SCT025 BKN090 19/12 Q1015 NOSIG RMK BLU BLU
  • 230800Z 30005KT 260V330 9999 FEW023 SCT090 18/12 Q1015 NOSIG RMK BLU BLU
  • 230730Z 29007KT 9999 FEW020 SCT090 17/12 Q1015 NOSIG RMK BLU BLU
  • 230700Z 28006KT 250V310 9999 FEW017 BKN090 17/12 Q1015 NOSIG RMK BLU BLU
  • 230630Z 28005KT 230V300 CAVOK 16/12 Q1015 NOSIG RMK BLU BLU
  • 230600Z 24002KT CAVOK 16/12 Q1015 NOSIG RMK BLU BLU
  • 230530Z 23003KT 200V260 CAVOK 15/12 Q1015 NOSIG RMK BLU BLU
  • 230500Z 18003KT CAVOK 14/13 Q1015 NOSIG RMK BLU BLU

TAF TAF LKCV
Valide du 23 à 06h jusqu'au 24 à 06h UTC


230500Z 2306/2406 29006KT CAVOK
TEMPO 2308/2316 BKN035
PROB40
TEMPO 2311/2315 7000 SHRA BKN025TCU
BECMG 2316/2318 VRB02KT
PROB30
TEMPO 2400/2406 5000 BR



MET'MAP, la Météo Aéronautique d'un coup d'oeil ! - Copyright ORBIFLY Décembre 2007 - Disclaimer

ORBIFLY MET'MAP TEAM :

Programmation & Développement : Alexandra Zaïnal
Sur une idée originale de : Baudouin d'Aumeries
Soutien technique & logistique : Manuel Goepfert
Assistance : Marc-Olivier Méhu




SOURCES & CREDITS :

   NOAA